sensor_id;sensor_type;location;lat;lon;timestamp;temperature;humidity
15288;DHT22;7745;48.708;9.026;2023-07-20T00:02:05;19.30;99.90
15288;DHT22;7745;48.708;9.026;2023-07-20T00:04:33;19.20;99.90
15288;DHT22;7745;48.708;9.026;2023-07-20T00:07:00;19.10;99.90
15288;DHT22;7745;48.708;9.026;2023-07-20T00:09:27;19.10;99.90
15288;DHT22;7745;48.708;9.026;2023-07-20T00:11:53;19.10;99.90
15288;DHT22;7745;48.708;9.026;2023-07-20T00:14:20;19.10;99.90
15288;DHT22;7745;48.708;9.026;2023-07-20T00:16:50;19.00;99.90
15288;DHT22;7745;48.708;9.026;2023-07-20T00:19:21;19.20;99.90
15288;DHT22;7745;48.708;9.026;2023-07-20T00:21:48;19.10;99.90
15288;DHT22;7745;48.708;9.026;2023-07-20T00:24:15;19.10;99.90
15288;DHT22;7745;48.708;9.026;2023-07-20T00:26:42;18.80;99.90
15288;DHT22;7745;48.708;9.026;2023-07-20T00:29:09;18.80;99.90
15288;DHT22;7745;48.708;9.026;2023-07-20T00:31:36;18.90;99.90
15288;DHT22;7745;48.708;9.026;2023-07-20T00:34:04;18.70;99.90
15288;DHT22;7745;48.708;9.026;2023-07-20T00:36:31;18.80;99.90
15288;DHT22;7745;48.708;9.026;2023-07-20T00:38:58;18.80;99.90
15288;DHT22;7745;48.708;9.026;2023-07-20T00:41:25;18.70;99.90
15288;DHT22;7745;48.708;9.026;2023-07-20T00:43:54;18.70;99.90
15288;DHT22;7745;48.708;9.026;2023-07-20T00:46:23;18.70;99.90
15288;DHT22;7745;48.708;9.026;2023-07-20T00:48:50;18.70;99.90
15288;DHT22;7745;48.708;9.026;2023-07-20T00:51:19;18.70;99.90
15288;DHT22;7745;48.708;9.026;2023-07-20T00:53:46;18.60;99.90
15288;DHT22;7745;48.708;9.026;2023-07-20T00:56:13;18.70;99.90
15288;DHT22;7745;48.708;9.026;2023-07-20T00:58:41;18.50;99.90
15288;DHT22;7745;48.708;9.026;2023-07-20T01:01:08;18.60;99.90
15288;DHT22;7745;48.708;9.026;2023-07-20T01:03:34;18.50;99.90
15288;DHT22;7745;48.708;9.026;2023-07-20T01:06:08;18.40;99.90
15288;DHT22;7745;48.708;9.026;2023-07-20T01:08:45;18.30;99.90
15288;DHT22;7745;48.708;9.026;2023-07-20T01:11:17;18.20;99.90
15288;DHT22;7745;48.708;9.026;2023-07-20T01:13:50;18.10;99.90
15288;DHT22;7745;48.708;9.026;2023-07-20T01:16:16;18.20;99.90
15288;DHT22;7745;48.708;9.026;2023-07-20T01:18:43;18.20;99.90
15288;DHT22;7745;48.708;9.026;2023-07-20T01:21:18;18.10;99.90
15288;DHT22;7745;48.708;9.026;2023-07-20T01:30:08;17.90;99.90
15288;DHT22;7745;48.708;9.026;2023-07-20T01:32:39;17.80;99.90
15288;DHT22;7745;48.708;9.026;2023-07-20T01:35:08;17.80;99.90
15288;DHT22;7745;48.708;9.026;2023-07-20T01:37:37;17.80;99.90
15288;DHT22;7745;48.708;9.026;2023-07-20T01:40:05;17.70;99.90
15288;DHT22;7745;48.708;9.026;2023-07-20T01:42:33;17.70;99.90
15288;DHT22;7745;48.708;9.026;2023-07-20T01:44:59;17.70;99.90
15288;DHT22;7745;48.708;9.026;2023-07-20T01:47:26;17.70;99.90
15288;DHT22;7745;48.708;9.026;2023-07-20T01:49:54;17.60;99.90
15288;DHT22;7745;48.708;9.026;2023-07-20T01:52:21;17.60;99.90
15288;DHT22;7745;48.708;9.026;2023-07-20T01:54:48;17.60;99.90
15288;DHT22;7745;48.708;9.026;2023-07-20T01:57:15;17.60;99.90
15288;DHT22;7745;48.708;9.026;2023-07-20T01:59:41;17.60;99.90
15288;DHT22;7745;48.708;9.026;2023-07-20T02:02:08;17.60;99.90
15288;DHT22;7745;48.708;9.026;2023-07-20T02:04:35;17.60;99.90
15288;DHT22;7745;48.708;9.026;2023-07-20T02:07:03;17.70;99.90
15288;DHT22;7745;48.708;9.026;2023-07-20T02:09:30;17.60;99.90
15288;DHT22;7745;48.708;9.026;2023-07-20T02:11:57;17.60;99.90
15288;DHT22;7745;48.708;9.026;2023-07-20T02:14:24;17.50;99.90
15288;DHT22;7745;48.708;9.026;2023-07-20T02:16:50;17.50;99.90
15288;DHT22;7745;48.708;9.026;2023-07-20T02:19:20;17.50;99.90
15288;DHT22;7745;48.708;9.026;2023-07-20T02:21:47;17.50;99.90
15288;DHT22;7745;48.708;9.026;2023-07-20T02:24:15;17.50;99.90
15288;DHT22;7745;48.708;9.026;2023-07-20T02:26:42;17.40;99.90
15288;DHT22;7745;48.708;9.026;2023-07-20T02:29:09;17.30;99.90
15288;DHT22;7745;48.708;9.026;2023-07-20T02:31:36;17.20;99.90
15288;DHT22;7745;48.708;9.026;2023-07-20T02:34:05;17.20;99.90
15288;DHT22;7745;48.708;9.026;2023-07-20T02:36:31;17.10;99.90
15288;DHT22;7745;48.708;9.026;2023-07-20T02:38:59;17.00;99.90
15288;DHT22;7745;48.708;9.026;2023-07-20T02:41:28;16.90;99.90
15288;DHT22;7745;48.708;9.026;2023-07-20T02:43:55;16.80;99.90
15288;DHT22;7745;48.708;9.026;2023-07-20T02:46:22;16.70;99.90
15288;DHT22;7745;48.708;9.026;2023-07-20T02:48:49;16.60;99.90
15288;DHT22;7745;48.708;9.026;2023-07-20T02:51:15;16.60;99.90
15288;DHT22;7745;48.708;9.026;2023-07-20T02:53:43;16.60;99.90
15288;DHT22;7745;48.708;9.026;2023-07-20T02:56:10;16.50;99.90
15288;DHT22;7745;48.708;9.026;2023-07-20T02:58:40;16.50;99.90
15288;DHT22;7745;48.708;9.026;2023-07-20T03:01:08;16.40;99.90
15288;DHT22;7745;48.708;9.026;2023-07-20T03:03:36;16.40;99.90
15288;DHT22;7745;48.708;9.026;2023-07-20T03:06:04;16.40;99.90
15288;DHT22;7745;48.708;9.026;2023-07-20T03:08:31;16.60;99.90
15288;DHT22;7745;48.708;9.026;2023-07-20T03:10:57;16.40;99.90
15288;DHT22;7745;48.708;9.026;2023-07-20T03:13:24;16.40;99.90
15288;DHT22;7745;48.708;9.026;2023-07-20T03:15:53;16.30;99.90
15288;DHT22;7745;48.708;9.026;2023-07-20T03:18:20;16.30;99.90
15288;DHT22;7745;48.708;9.026;2023-07-20T03:20:47;16.30;99.90
15288;DHT22;7745;48.708;9.026;2023-07-20T03:23:14;16.40;99.90
15288;DHT22;7745;48.708;9.026;2023-07-20T03:25:41;16.30;99.90
15288;DHT22;7745;48.708;9.026;2023-07-20T03:28:08;16.30;99.90
15288;DHT22;7745;48.708;9.026;2023-07-20T03:30:35;16.30;99.90
15288;DHT22;7745;48.708;9.026;2023-07-20T03:33:03;16.30;99.90
15288;DHT22;7745;48.708;9.026;2023-07-20T03:35:30;16.30;99.90
15288;DHT22;7745;48.708;9.026;2023-07-20T03:37:57;16.20;99.90
15288;DHT22;7745;48.708;9.026;2023-07-20T03:40:23;16.40;99.90
15288;DHT22;7745;48.708;9.026;2023-07-20T03:42:50;16.00;99.90
15288;DHT22;7745;48.708;9.026;2023-07-20T03:45:17;16.00;99.90
15288;DHT22;7745;48.708;9.026;2023-07-20T03:47:44;16.00;99.90
15288;DHT22;7745;48.708;9.026;2023-07-20T03:50:13;16.00;99.90
15288;DHT22;7745;48.708;9.026;2023-07-20T03:52:40;16.10;99.90
15288;DHT22;7745;48.708;9.026;2023-07-20T03:55:08;16.00;99.90
15288;DHT22;7745;48.708;9.026;2023-07-20T03:57:35;16.00;99.90
15288;DHT22;7745;48.708;9.026;2023-07-20T04:00:02;16.10;99.90
15288;DHT22;7745;48.708;9.026;2023-07-20T04:02:29;16.00;99.90
15288;DHT22;7745;48.708;9.026;2023-07-20T04:04:56;16.00;99.90
15288;DHT22;7745;48.708;9.026;2023-07-20T04:07:24;16.10;99.90
15288;DHT22;7745;48.708;9.026;2023-07-20T04:09:51;16.10;99.90
15288;DHT22;7745;48.708;9.026;2023-07-20T04:12:18;16.10;99.90
15288;DHT22;7745;48.708;9.026;2023-07-20T04:14:44;16.10;99.90
15288;DHT22;7745;48.708;9.026;2023-07-20T04:17:11;16.10;99.90
15288;DHT22;7745;48.708;9.026;2023-07-20T04:19:38;16.30;99.90
15288;DHT22;7745;48.708;9.026;2023-07-20T04:22:05;16.30;99.90
15288;DHT22;7745;48.708;9.026;2023-07-20T04:24:33;16.40;99.90
15288;DHT22;7745;48.708;9.026;2023-07-20T04:27:00;16.60;99.90
15288;DHT22;7745;48.708;9.026;2023-07-20T04:29:27;16.40;99.90
15288;DHT22;7745;48.708;9.026;2023-07-20T04:31:53;16.40;99.90
15288;DHT22;7745;48.708;9.026;2023-07-20T04:34:20;16.50;99.90
15288;DHT22;7745;48.708;9.026;2023-07-20T04:36:47;16.50;99.90
15288;DHT22;7745;48.708;9.026;2023-07-20T04:39:14;16.60;99.90
15288;DHT22;7745;48.708;9.026;2023-07-20T04:41:42;16.70;99.90
15288;DHT22;7745;48.708;9.026;2023-07-20T04:44:09;16.70;99.90
15288;DHT22;7745;48.708;9.026;2023-07-20T04:46:35;16.70;99.90
15288;DHT22;7745;48.708;9.026;2023-07-20T04:49:02;16.80;99.90
15288;DHT22;7745;48.708;9.026;2023-07-20T04:51:29;17.00;99.90
15288;DHT22;7745;48.708;9.026;2023-07-20T04:53:56;17.00;99.90
15288;DHT22;7745;48.708;9.026;2023-07-20T04:56:23;17.00;99.90
15288;DHT22;7745;48.708;9.026;2023-07-20T04:58:51;17.10;99.90
15288;DHT22;7745;48.708;9.026;2023-07-20T05:01:18;17.20;99.90
15288;DHT22;7745;48.708;9.026;2023-07-20T05:03:45;17.30;99.90
15288;DHT22;7745;48.708;9.026;2023-07-20T05:06:12;17.30;99.90
15288;DHT22;7745;48.708;9.026;2023-07-20T05:08:39;17.40;99.90
15288;DHT22;7745;48.708;9.026;2023-07-20T05:11:06;17.60;99.90
15288;DHT22;7745;48.708;9.026;2023-07-20T05:13:33;17.50;99.90
15288;DHT22;7745;48.708;9.026;2023-07-20T05:16:01;17.60;99.90
15288;DHT22;7745;48.708;9.026;2023-07-20T05:18:28;17.60;99.90
15288;DHT22;7745;48.708;9.026;2023-07-20T05:20:55;17.50;99.90
15288;DHT22;7745;48.708;9.026;2023-07-20T05:23:22;17.60;99.90
15288;DHT22;7745;48.708;9.026;2023-07-20T05:25:54;17.70;99.90
15288;DHT22;7745;48.708;9.026;2023-07-20T05:28:21;17.80;99.90
15288;DHT22;7745;48.708;9.026;2023-07-20T05:30:48;18.00;99.90
15288;DHT22;7745;48.708;9.026;2023-07-20T05:33:18;18.20;99.90
15288;DHT22;7745;48.708;9.026;2023-07-20T05:35:45;18.20;99.90
15288;DHT22;7745;48.708;9.026;2023-07-20T05:38:12;18.30;99.90
15288;DHT22;7745;48.708;9.026;2023-07-20T05:40:41;18.30;99.90
15288;DHT22;7745;48.708;9.026;2023-07-20T05:43:08;18.40;99.90
15288;DHT22;7745;48.708;9.026;2023-07-20T05:45:34;18.40;99.90
15288;DHT22;7745;48.708;9.026;2023-07-20T05:48:01;18.60;99.90
15288;DHT22;7745;48.708;9.026;2023-07-20T05:50:29;18.70;99.90
15288;DHT22;7745;48.708;9.026;2023-07-20T05:52:56;18.50;99.90
15288;DHT22;7745;48.708;9.026;2023-07-20T05:55:23;18.80;99.90
15288;DHT22;7745;48.708;9.026;2023-07-20T05:57:49;18.80;99.90
15288;DHT22;7745;48.708;9.026;2023-07-20T06:00:17;18.80;99.90
15288;DHT22;7745;48.708;9.026;2023-07-20T06:02:44;18.90;99.90
15288;DHT22;7745;48.708;9.026;2023-07-20T06:05:13;19.10;99.90
15288;DHT22;7745;48.708;9.026;2023-07-20T06:07:41;19.10;99.90
15288;DHT22;7745;48.708;9.026;2023-07-20T06:10:08;19.20;99.90
15288;DHT22;7745;48.708;9.026;2023-07-20T06:12:35;19.20;99.90
15288;DHT22;7745;48.708;9.026;2023-07-20T06:15:02;19.30;99.90
15288;DHT22;7745;48.708;9.026;2023-07-20T06:17:30;19.30;99.90
15288;DHT22;7745;48.708;9.026;2023-07-20T06:19:57;19.20;99.90
15288;DHT22;7745;48.708;9.026;2023-07-20T06:22:23;19.30;99.90
15288;DHT22;7745;48.708;9.026;2023-07-20T06:24:51;19.40;99.90
15288;DHT22;7745;48.708;9.026;2023-07-20T06:27:18;19.40;99.90
15288;DHT22;7745;48.708;9.026;2023-07-20T06:29:45;19.60;99.90
15288;DHT22;7745;48.708;9.026;2023-07-20T06:32:12;19.60;99.90
15288;DHT22;7745;48.708;9.026;2023-07-20T06:34:39;19.70;99.90
15288;DHT22;7745;48.708;9.026;2023-07-20T06:37:06;19.70;99.90
15288;DHT22;7745;48.708;9.026;2023-07-20T06:39:32;19.70;99.90
15288;DHT22;7745;48.708;9.026;2023-07-20T06:42:00;19.80;99.90
15288;DHT22;7745;48.708;9.026;2023-07-20T06:44:27;19.90;99.90
15288;DHT22;7745;48.708;9.026;2023-07-20T06:46:54;20.10;99.90
15288;DHT22;7745;48.708;9.026;2023-07-20T06:49:24;20.10;99.90
15288;DHT22;7745;48.708;9.026;2023-07-20T06:51:51;20.10;99.90
15288;DHT22;7745;48.708;9.026;2023-07-20T06:54:18;20.10;99.90
15288;DHT22;7745;48.708;9.026;2023-07-20T06:56:45;20.30;99.90
15288;DHT22;7745;48.708;9.026;2023-07-20T06:59:13;20.30;99.90
15288;DHT22;7745;48.708;9.026;2023-07-20T07:01:40;20.30;99.90
15288;DHT22;7745;48.708;9.026;2023-07-20T07:04:06;20.50;99.90
15288;DHT22;7745;48.708;9.026;2023-07-20T07:06:33;20.50;99.90
15288;DHT22;7745;48.708;9.026;2023-07-20T07:09:02;20.60;99.90
15288;DHT22;7745;48.708;9.026;2023-07-20T07:11:29;20.70;99.90
15288;DHT22;7745;48.708;9.026;2023-07-20T07:13:56;20.90;99.90
15288;DHT22;7745;48.708;9.026;2023-07-20T07:16:24;20.90;99.90
15288;DHT22;7745;48.708;9.026;2023-07-20T07:18:51;21.00;99.90
15288;DHT22;7745;48.708;9.026;2023-07-20T07:21:18;20.90;99.90
15288;DHT22;7745;48.708;9.026;2023-07-20T07:23:45;21.00;99.90
15288;DHT22;7745;48.708;9.026;2023-07-20T07:26:12;21.10;99.90
15288;DHT22;7745;48.708;9.026;2023-07-20T07:28:39;21.20;99.90
15288;DHT22;7745;48.708;9.026;2023-07-20T07:31:06;21.30;99.90
15288;DHT22;7745;48.708;9.026;2023-07-20T07:33:34;21.40;99.90
15288;DHT22;7745;48.708;9.026;2023-07-20T07:36:01;21.40;99.90
15288;DHT22;7745;48.708;9.026;2023-07-20T07:38:28;21.30;99.90
15288;DHT22;7745;48.708;9.026;2023-07-20T07:40:55;21.40;99.90
15288;DHT22;7745;48.708;9.026;2023-07-20T07:43:21;21.40;99.90
15288;DHT22;7745;48.708;9.026;2023-07-20T07:45:49;21.50;99.90
15288;DHT22;7745;48.708;9.026;2023-07-20T07:48:15;21.40;99.90
15288;DHT22;7745;48.708;9.026;2023-07-20T07:50:44;21.40;99.90
15288;DHT22;7745;48.708;9.026;2023-07-20T07:53:10;21.50;99.90
15288;DHT22;7745;48.708;9.026;2023-07-20T07:55:37;21.60;99.90
15288;DHT22;7745;48.708;9.026;2023-07-20T07:58:04;21.90;99.90
15288;DHT22;7745;48.708;9.026;2023-07-20T08:00:31;21.80;99.90
15288;DHT22;7745;48.708;9.026;2023-07-20T08:02:58;21.70;99.90
15288;DHT22;7745;48.708;9.026;2023-07-20T08:05:24;21.70;99.90
15288;DHT22;7745;48.708;9.026;2023-07-20T08:07:53;21.80;99.90
15288;DHT22;7745;48.708;9.026;2023-07-20T08:10:19;21.90;99.90
15288;DHT22;7745;48.708;9.026;2023-07-20T08:12:46;22.00;99.90
15288;DHT22;7745;48.708;9.026;2023-07-20T08:15:13;22.10;99.90
15288;DHT22;7745;48.708;9.026;2023-07-20T08:17:41;22.20;99.90
15288;DHT22;7745;48.708;9.026;2023-07-20T08:20:09;22.20;99.90
15288;DHT22;7745;48.708;9.026;2023-07-20T08:22:37;22.10;99.90
15288;DHT22;7745;48.708;9.026;2023-07-20T08:25:08;22.20;99.90
15288;DHT22;7745;48.708;9.026;2023-07-20T08:27:36;22.40;99.90
15288;DHT22;7745;48.708;9.026;2023-07-20T08:30:04;22.50;99.90
15288;DHT22;7745;48.708;9.026;2023-07-20T08:32:32;22.40;99.90
15288;DHT22;7745;48.708;9.026;2023-07-20T08:34:59;22.20;99.90
15288;DHT22;7745;48.708;9.026;2023-07-20T08:37:25;22.00;99.90
15288;DHT22;7745;48.708;9.026;2023-07-20T08:39:52;21.90;99.90
15288;DHT22;7745;48.708;9.026;2023-07-20T08:42:20;21.80;99.90
15288;DHT22;7745;48.708;9.026;2023-07-20T08:44:50;21.90;99.90
15288;DHT22;7745;48.708;9.026;2023-07-20T08:47:20;22.00;99.90
15288;DHT22;7745;48.708;9.026;2023-07-20T08:49:48;22.20;99.90
15288;DHT22;7745;48.708;9.026;2023-07-20T08:52:15;22.50;99.90
15288;DHT22;7745;48.708;9.026;2023-07-20T08:54:42;22.50;99.90
15288;DHT22;7745;48.708;9.026;2023-07-20T08:57:13;22.50;99.90
15288;DHT22;7745;48.708;9.026;2023-07-20T08:59:43;22.50;99.90
15288;DHT22;7745;48.708;9.026;2023-07-20T09:02:12;22.30;99.90
15288;DHT22;7745;48.708;9.026;2023-07-20T09:04:42;22.50;99.90
15288;DHT22;7745;48.708;9.026;2023-07-20T09:07:09;22.90;99.90
15288;DHT22;7745;48.708;9.026;2023-07-20T09:09:39;23.10;99.90
15288;DHT22;7745;48.708;9.026;2023-07-20T09:12:13;23.60;99.90
15288;DHT22;7745;48.708;9.026;2023-07-20T09:14:44;23.60;99.90
15288;DHT22;7745;48.708;9.026;2023-07-20T09:17:13;23.50;99.90
15288;DHT22;7745;48.708;9.026;2023-07-20T09:19:46;23.30;99.90
15288;DHT22;7745;48.708;9.026;2023-07-20T09:22:12;23.10;99.90
15288;DHT22;7745;48.708;9.026;2023-07-20T09:24:39;23.00;99.90
15288;DHT22;7745;48.708;9.026;2023-07-20T09:27:07;22.80;99.90
15288;DHT22;7745;48.708;9.026;2023-07-20T09:29:35;22.70;99.90
15288;DHT22;7745;48.708;9.026;2023-07-20T09:32:04;22.60;99.90
15288;DHT22;7745;48.708;9.026;2023-07-20T09:34:31;22.60;99.90
15288;DHT22;7745;48.708;9.026;2023-07-20T09:36:58;22.60;99.90
15288;DHT22;7745;48.708;9.026;2023-07-20T09:39:25;22.50;99.90
15288;DHT22;7745;48.708;9.026;2023-07-20T09:41:52;22.60;99.90
15288;DHT22;7745;48.708;9.026;2023-07-20T09:44:19;22.90;99.90
15288;DHT22;7745;48.708;9.026;2023-07-20T09:46:47;23.30;99.90
15288;DHT22;7745;48.708;9.026;2023-07-20T09:49:17;23.60;99.90
15288;DHT22;7745;48.708;9.026;2023-07-20T09:51:44;24.00;99.90
15288;DHT22;7745;48.708;9.026;2023-07-20T09:54:13;24.20;99.90
15288;DHT22;7745;48.708;9.026;2023-07-20T09:56:40;24.40;99.90
15288;DHT22;7745;48.708;9.026;2023-07-20T09:59:08;24.40;99.90
15288;DHT22;7745;48.708;9.026;2023-07-20T10:01:35;24.30;99.90
15288;DHT22;7745;48.708;9.026;2023-07-20T10:04:04;24.00;99.90
15288;DHT22;7745;48.708;9.026;2023-07-20T10:06:35;23.90;99.90
15288;DHT22;7745;48.708;9.026;2023-07-20T10:09:03;23.90;99.90
15288;DHT22;7745;48.708;9.026;2023-07-20T10:11:33;23.60;99.90
15288;DHT22;7745;48.708;9.026;2023-07-20T10:14:03;23.50;99.90
15288;DHT22;7745;48.708;9.026;2023-07-20T10:16:34;23.50;99.90
15288;DHT22;7745;48.708;9.026;2023-07-20T10:19:05;23.60;99.90
15288;DHT22;7745;48.708;9.026;2023-07-20T10:21:35;23.80;99.90
15288;DHT22;7745;48.708;9.026;2023-07-20T10:24:04;24.00;99.90
15288;DHT22;7745;48.708;9.026;2023-07-20T10:26:32;24.30;99.90
15288;DHT22;7745;48.708;9.026;2023-07-20T10:29:00;24.40;99.90
15288;DHT22;7745;48.708;9.026;2023-07-20T10:31:28;24.60;99.90
15288;DHT22;7745;48.708;9.026;2023-07-20T10:33:57;24.80;99.90
15288;DHT22;7745;48.708;9.026;2023-07-20T10:36:25;24.90;99.90
15288;DHT22;7745;48.708;9.026;2023-07-20T10:38:55;24.80;99.90
15288;DHT22;7745;48.708;9.026;2023-07-20T10:41:27;24.40;99.90
15288;DHT22;7745;48.708;9.026;2023-07-20T10:43:58;24.10;99.90
15288;DHT22;7745;48.708;9.026;2023-07-20T10:46:34;23.90;99.90
15288;DHT22;7745;48.708;9.026;2023-07-20T10:49:02;23.80;99.90
15288;DHT22;7745;48.708;9.026;2023-07-20T10:51:30;23.80;99.90
15288;DHT22;7745;48.708;9.026;2023-07-20T10:53:58;23.80;99.90
15288;DHT22;7745;48.708;9.026;2023-07-20T10:56:27;24.10;99.90
15288;DHT22;7745;48.708;9.026;2023-07-20T10:58:58;24.40;99.90
15288;DHT22;7745;48.708;9.026;2023-07-20T11:01:28;24.40;99.90
15288;DHT22;7745;48.708;9.026;2023-07-20T11:03:58;24.60;99.90
15288;DHT22;7745;48.708;9.026;2023-07-20T11:06:30;24.80;99.90
15288;DHT22;7745;48.708;9.026;2023-07-20T11:09:10;24.70;99.90
15288;DHT22;7745;48.708;9.026;2023-07-20T11:11:41;24.90;99.90
15288;DHT22;7745;48.708;9.026;2023-07-20T11:14:09;24.90;99.90
15288;DHT22;7745;48.708;9.026;2023-07-20T11:16:39;24.60;99.90
15288;DHT22;7745;48.708;9.026;2023-07-20T11:19:14;24.50;99.90
15288;DHT22;7745;48.708;9.026;2023-07-20T11:21:44;24.40;99.90
15288;DHT22;7745;48.708;9.026;2023-07-20T11:24:12;24.30;99.90
15288;DHT22;7745;48.708;9.026;2023-07-20T11:26:43;24.20;99.90
15288;DHT22;7745;48.708;9.026;2023-07-20T11:29:10;24.50;99.90
15288;DHT22;7745;48.708;9.026;2023-07-20T11:31:38;24.60;99.90
15288;DHT22;7745;48.708;9.026;2023-07-20T11:34:05;24.40;99.90
15288;DHT22;7745;48.708;9.026;2023-07-20T11:36:33;24.30;99.90
15288;DHT22;7745;48.708;9.026;2023-07-20T11:39:00;24.20;99.90
15288;DHT22;7745;48.708;9.026;2023-07-20T11:41:31;24.30;99.90
15288;DHT22;7745;48.708;9.026;2023-07-20T11:43:58;24.60;99.90
15288;DHT22;7745;48.708;9.026;2023-07-20T11:46:25;24.70;99.90
15288;DHT22;7745;48.708;9.026;2023-07-20T11:48:57;24.80;99.90
15288;DHT22;7745;48.708;9.026;2023-07-20T11:51:25;25.00;99.90
15288;DHT22;7745;48.708;9.026;2023-07-20T11:53:52;25.10;99.90
15288;DHT22;7745;48.708;9.026;2023-07-20T11:56:19;24.90;99.90
15288;DHT22;7745;48.708;9.026;2023-07-20T11:58:47;24.70;99.90
15288;DHT22;7745;48.708;9.026;2023-07-20T12:01:15;24.90;99.90
15288;DHT22;7745;48.708;9.026;2023-07-20T12:03:43;24.90;99.90
15288;DHT22;7745;48.708;9.026;2023-07-20T12:06:10;25.00;99.90
15288;DHT22;7745;48.708;9.026;2023-07-20T12:08:38;25.00;99.90
15288;DHT22;7745;48.708;9.026;2023-07-20T12:11:06;24.90;99.90
15288;DHT22;7745;48.708;9.026;2023-07-20T12:13:37;25.10;99.90
15288;DHT22;7745;48.708;9.026;2023-07-20T12:16:09;25.30;99.90
15288;DHT22;7745;48.708;9.026;2023-07-20T12:18:36;25.30;99.90
15288;DHT22;7745;48.708;9.026;2023-07-20T12:21:03;25.10;99.90
15288;DHT22;7745;48.708;9.026;2023-07-20T12:23:35;25.00;99.90
15288;DHT22;7745;48.708;9.026;2023-07-20T12:26:02;24.80;99.90
15288;DHT22;7745;48.708;9.026;2023-07-20T12:28:31;24.70;99.90
15288;DHT22;7745;48.708;9.026;2023-07-20T12:30:58;24.70;99.90
15288;DHT22;7745;48.708;9.026;2023-07-20T12:33:26;24.60;99.90
15288;DHT22;7745;48.708;9.026;2023-07-20T12:35:53;24.80;99.90
15288;DHT22;7745;48.708;9.026;2023-07-20T12:38:21;24.80;99.90
15288;DHT22;7745;48.708;9.026;2023-07-20T12:40:49;24.80;99.90
15288;DHT22;7745;48.708;9.026;2023-07-20T12:43:16;24.80;99.90
15288;DHT22;7745;48.708;9.026;2023-07-20T12:45:43;24.70;99.90
15288;DHT22;7745;48.708;9.026;2023-07-20T12:48:10;24.60;99.90
15288;DHT22;7745;48.708;9.026;2023-07-20T12:50:38;24.50;99.90
15288;DHT22;7745;48.708;9.026;2023-07-20T12:53:04;24.40;99.90
15288;DHT22;7745;48.708;9.026;2023-07-20T12:55:31;24.20;99.90
15288;DHT22;7745;48.708;9.026;2023-07-20T12:57:58;24.10;99.90
15288;DHT22;7745;48.708;9.026;2023-07-20T13:00:25;24.30;99.90
15288;DHT22;7745;48.708;9.026;2023-07-20T13:02:52;24.50;99.90
15288;DHT22;7745;48.708;9.026;2023-07-20T13:05:19;24.60;99.90
15288;DHT22;7745;48.708;9.026;2023-07-20T13:07:47;24.80;99.90
15288;DHT22;7745;48.708;9.026;2023-07-20T13:10:14;24.80;99.90
15288;DHT22;7745;48.708;9.026;2023-07-20T13:12:41;24.70;99.90
15288;DHT22;7745;48.708;9.026;2023-07-20T13:15:09;24.70;99.90
15288;DHT22;7745;48.708;9.026;2023-07-20T13:17:37;24.90;99.90
15288;DHT22;7745;48.708;9.026;2023-07-20T13:20:06;25.10;99.90
15288;DHT22;7745;48.708;9.026;2023-07-20T13:22:35;25.30;99.90
15288;DHT22;7745;48.708;9.026;2023-07-20T13:25:04;25.40;99.90
15288;DHT22;7745;48.708;9.026;2023-07-20T13:27:31;25.40;99.90
15288;DHT22;7745;48.708;9.026;2023-07-20T13:29:58;25.60;99.90
15288;DHT22;7745;48.708;9.026;2023-07-20T13:32:26;25.50;99.90
15288;DHT22;7745;48.708;9.026;2023-07-20T13:34:53;25.50;99.90
15288;DHT22;7745;48.708;9.026;2023-07-20T13:37:20;25.40;99.90
15288;DHT22;7745;48.708;9.026;2023-07-20T13:39:47;25.10;99.90
15288;DHT22;7745;48.708;9.026;2023-07-20T13:42:15;24.90;99.90
15288;DHT22;7745;48.708;9.026;2023-07-20T13:44:42;24.80;99.90
15288;DHT22;7745;48.708;9.026;2023-07-20T13:47:09;24.70;99.90
15288;DHT22;7745;48.708;9.026;2023-07-20T13:49:36;24.60;99.90
15288;DHT22;7745;48.708;9.026;2023-07-20T13:52:04;24.70;99.90
15288;DHT22;7745;48.708;9.026;2023-07-20T13:54:31;24.90;99.90
15288;DHT22;7745;48.708;9.026;2023-07-20T13:56:57;24.90;99.90
15288;DHT22;7745;48.708;9.026;2023-07-20T13:59:26;25.00;99.90
15288;DHT22;7745;48.708;9.026;2023-07-20T14:01:52;24.90;99.90
15288;DHT22;7745;48.708;9.026;2023-07-20T14:04:19;24.80;99.90
15288;DHT22;7745;48.708;9.026;2023-07-20T14:06:46;24.80;99.90
15288;DHT22;7745;48.708;9.026;2023-07-20T14:09:13;24.90;99.90
15288;DHT22;7745;48.708;9.026;2023-07-20T14:11:39;24.90;99.90
15288;DHT22;7745;48.708;9.026;2023-07-20T14:14:06;25.00;99.90
15288;DHT22;7745;48.708;9.026;2023-07-20T14:16:34;25.10;99.90
15288;DHT22;7745;48.708;9.026;2023-07-20T14:19:01;25.20;99.90
15288;DHT22;7745;48.708;9.026;2023-07-20T14:21:30;25.40;99.90
15288;DHT22;7745;48.708;9.026;2023-07-20T14:23:57;25.40;99.90
15288;DHT22;7745;48.708;9.026;2023-07-20T14:26:24;25.30;99.90
15288;DHT22;7745;48.708;9.026;2023-07-20T14:28:51;25.20;99.90
15288;DHT22;7745;48.708;9.026;2023-07-20T14:31:18;25.10;99.90
15288;DHT22;7745;48.708;9.026;2023-07-20T14:33:46;25.10;99.90
15288;DHT22;7745;48.708;9.026;2023-07-20T14:36:13;25.20;99.90
15288;DHT22;7745;48.708;9.026;2023-07-20T14:38:40;25.20;99.90
15288;DHT22;7745;48.708;9.026;2023-07-20T14:41:07;25.20;99.90
15288;DHT22;7745;48.708;9.026;2023-07-20T14:43:33;25.30;99.90
15288;DHT22;7745;48.708;9.026;2023-07-20T14:46:00;25.30;99.90
15288;DHT22;7745;48.708;9.026;2023-07-20T14:48:27;25.30;99.90
15288;DHT22;7745;48.708;9.026;2023-07-20T14:50:55;25.30;99.90
15288;DHT22;7745;48.708;9.026;2023-07-20T14:53:22;25.40;99.90
15288;DHT22;7745;48.708;9.026;2023-07-20T14:55:49;25.40;99.90
15288;DHT22;7745;48.708;9.026;2023-07-20T14:58:16;25.40;99.90
15288;DHT22;7745;48.708;9.026;2023-07-20T15:00:43;25.40;99.90
15288;DHT22;7745;48.708;9.026;2023-07-20T15:03:10;25.20;99.90
15288;DHT22;7745;48.708;9.026;2023-07-20T15:05:36;25.20;99.90
15288;DHT22;7745;48.708;9.026;2023-07-20T15:08:05;25.30;99.90
15288;DHT22;7745;48.708;9.026;2023-07-20T15:10:34;25.40;99.90
15288;DHT22;7745;48.708;9.026;2023-07-20T15:13:00;25.40;99.90
15288;DHT22;7745;48.708;9.026;2023-07-20T15:15:28;25.30;99.90
15288;DHT22;7745;48.708;9.026;2023-07-20T15:17:54;25.40;99.90
15288;DHT22;7745;48.708;9.026;2023-07-20T15:20:21;25.40;99.90
15288;DHT22;7745;48.708;9.026;2023-07-20T15:22:48;25.50;99.90
15288;DHT22;7745;48.708;9.026;2023-07-20T15:25:16;25.50;99.90
15288;DHT22;7745;48.708;9.026;2023-07-20T15:27:43;25.50;99.90
15288;DHT22;7745;48.708;9.026;2023-07-20T15:30:10;25.40;99.90
15288;DHT22;7745;48.708;9.026;2023-07-20T15:32:37;25.40;99.90
15288;DHT22;7745;48.708;9.026;2023-07-20T15:35:06;25.60;99.90
15288;DHT22;7745;48.708;9.026;2023-07-20T15:37:33;25.60;99.90
15288;DHT22;7745;48.708;9.026;2023-07-20T15:40:00;25.60;99.90
15288;DHT22;7745;48.708;9.026;2023-07-20T15:42:31;25.50;99.90
15288;DHT22;7745;48.708;9.026;2023-07-20T15:44:58;25.40;99.90
15288;DHT22;7745;48.708;9.026;2023-07-20T15:47:25;25.60;99.90
15288;DHT22;7745;48.708;9.026;2023-07-20T15:49:52;25.60;99.90
15288;DHT22;7745;48.708;9.026;2023-07-20T15:52:19;25.60;99.90
15288;DHT22;7745;48.708;9.026;2023-07-20T15:54:46;25.50;99.90